createdAt,value
2018-02-18T00:00:52.508Z,0.00
2018-02-18T00:01:52.496Z,0.00
2018-02-18T00:02:52.480Z,0.00
2018-02-18T00:03:52.444Z,0.00
2018-02-18T00:04:52.425Z,0.00
2018-02-18T00:05:52.416Z,0.00
2018-02-18T00:06:52.405Z,0.00
2018-02-18T00:07:52.393Z,0.00
2018-02-18T00:08:52.377Z,0.00
2018-02-18T00:09:52.379Z,0.00
2018-02-18T00:10:52.354Z,0.00
2018-02-18T00:11:52.327Z,0.00
2018-02-18T00:12:52.317Z,0.00
2018-02-18T00:13:52.304Z,0.00
2018-02-18T00:14:52.291Z,0.00
2018-02-18T00:15:52.290Z,0.00
2018-02-18T00:16:52.283Z,0.00
2018-02-18T00:17:52.244Z,0.00
2018-02-18T00:18:52.246Z,0.00
2018-02-18T00:19:52.229Z,0.00
2018-02-18T00:20:52.206Z,0.00
2018-02-18T00:21:52.197Z,0.00
2018-02-18T00:22:52.182Z,0.00
2018-02-18T00:23:52.169Z,0.00
2018-02-18T00:24:52.151Z,0.00
2018-02-18T00:25:52.152Z,0.00
2018-02-18T00:26:52.165Z,0.00
2018-02-18T00:27:52.111Z,0.00
2018-02-18T00:28:52.093Z,0.00
2018-02-18T00:29:52.077Z,0.00
2018-02-18T00:30:52.073Z,0.00
2018-02-18T00:31:52.050Z,0.00
2018-02-18T00:32:52.042Z,0.00
2018-02-18T00:33:52.022Z,0.00
2018-02-18T00:34:52.009Z,0.00
2018-02-18T00:35:52.026Z,0.00
2018-02-18T00:36:51.981Z,0.00
2018-02-18T00:37:51.968Z,0.00
2018-02-18T00:38:51.953Z,0.00
2018-02-18T00:39:51.941Z,0.00
2018-02-18T00:40:51.928Z,0.00
2018-02-18T00:41:51.913Z,0.00
2018-02-18T00:42:51.897Z,0.00
2018-02-18T00:43:51.882Z,0.00
2018-02-18T00:44:51.897Z,0.00
2018-02-18T00:45:51.866Z,0.00
2018-02-18T00:46:51.860Z,0.00
2018-02-18T00:47:51.836Z,0.00
2018-02-18T00:48:51.818Z,0.00
2018-02-18T00:49:51.803Z,0.00
2018-02-18T00:50:51.789Z,0.00
2018-02-18T00:51:51.775Z,0.00
2018-02-18T00:52:51.759Z,0.00
2018-02-18T00:53:51.765Z,0.00
2018-02-18T00:54:51.735Z,0.00
2018-02-18T00:55:51.713Z,0.00
2018-02-18T00:56:51.702Z,0.00
2018-02-18T00:57:51.682Z,0.00
2018-02-18T00:58:51.672Z,0.00
2018-02-18T00:59:51.660Z,0.00
2018-02-18T01:00:51.648Z,0.00
2018-02-18T01:01:51.631Z,0.00
2018-02-18T01:02:51.611Z,0.00
2018-02-18T01:03:51.601Z,0.00
2018-02-18T01:04:51.603Z,0.00
2018-02-18T01:05:51.575Z,0.00
2018-02-18T01:06:51.556Z,0.00
2018-02-18T01:07:51.544Z,0.00
2018-02-18T01:08:51.533Z,0.00
2018-02-18T01:09:51.519Z,0.00
2018-02-18T01:10:51.497Z,0.00
2018-02-18T01:11:51.489Z,0.00
2018-02-18T01:12:51.473Z,0.00
2018-02-18T01:13:51.473Z,0.00
2018-02-18T01:14:51.512Z,0.00
2018-02-18T01:15:51.440Z,0.00
2018-02-18T01:16:51.419Z,0.00
2018-02-18T01:17:51.404Z,0.00
2018-02-18T01:18:51.395Z,0.00
2018-02-18T01:19:51.372Z,0.00
2018-02-18T01:20:51.368Z,0.00
2018-02-18T01:21:51.349Z,0.00
2018-02-18T01:22:51.333Z,0.00
2018-02-18T01:23:51.318Z,0.00
2018-02-18T01:24:51.307Z,0.00
2018-02-18T01:25:51.288Z,0.00
2018-02-18T01:26:51.273Z,0.00
2018-02-18T01:27:51.278Z,0.00
2018-02-18T01:28:51.247Z,0.00
2018-02-18T01:29:51.243Z,0.00
2018-02-18T01:30:51.215Z,0.00
2018-02-18T01:31:51.210Z,0.00
2018-02-18T01:32:51.194Z,0.00
2018-02-18T01:33:51.197Z,0.00
2018-02-18T01:34:51.177Z,0.00
2018-02-18T01:35:51.143Z,0.00
2018-02-18T01:36:51.139Z,0.00
2018-02-18T01:37:51.126Z,0.00
2018-02-18T01:38:51.111Z,0.00
2018-02-18T01:39:51.101Z,0.00
2018-02-18T01:40:51.088Z,0.00
2018-02-18T01:41:51.069Z,0.00
2018-02-18T01:42:51.053Z,0.00
2018-02-18T01:43:51.041Z,0.00
2018-02-18T01:44:51.018Z,0.00
2018-02-18T01:45:51.004Z,0.00
2018-02-18T01:46:50.989Z,0.00
2018-02-18T01:47:50.985Z,0.00
2018-02-18T01:48:50.961Z,0.00
2018-02-18T01:49:50.947Z,0.00
2018-02-18T01:50:50.934Z,0.00
2018-02-18T01:51:50.921Z,0.00
2018-02-18T01:52:50.903Z,0.00
2018-02-18T01:53:50.893Z,0.00
2018-02-18T01:54:50.875Z,0.00
2018-02-18T01:55:50.868Z,0.00
2018-02-18T01:56:50.849Z,0.00
2018-02-18T01:57:50.835Z,0.00
2018-02-18T01:58:50.817Z,0.00
2018-02-18T01:59:50.803Z,0.00
2018-02-18T02:00:50.795Z,0.00
2018-02-18T02:01:50.775Z,0.00
2018-02-18T02:02:50.756Z,0.00
2018-02-18T02:03:50.748Z,0.00
2018-02-18T02:04:50.728Z,0.00
2018-02-18T02:05:50.718Z,0.00
2018-02-18T02:06:50.705Z,0.00
2018-02-18T02:07:50.688Z,0.00
2018-02-18T02:08:50.674Z,0.00
2018-02-18T02:09:50.655Z,0.00
2018-02-18T02:10:50.643Z,0.00
2018-02-18T02:11:50.630Z,0.00
2018-02-18T02:12:50.615Z,0.00
2018-02-18T02:13:50.598Z,0.00
2018-02-18T02:14:50.590Z,0.00
2018-02-18T02:15:50.573Z,0.00
2018-02-18T02:16:50.560Z,0.00
2018-02-18T02:17:50.551Z,0.00
2018-02-18T02:18:50.529Z,0.00
2018-02-18T02:19:50.511Z,0.00
2018-02-18T02:20:50.501Z,0.00
2018-02-18T02:21:50.487Z,0.00
2018-02-18T02:22:50.467Z,0.00
2018-02-18T02:23:50.457Z,0.00
2018-02-18T02:24:50.451Z,0.00
2018-02-18T02:25:50.434Z,0.00
2018-02-18T02:26:50.418Z,0.00
2018-02-18T02:27:50.401Z,0.00
2018-02-18T02:28:50.389Z,0.00
2018-02-18T02:29:50.372Z,0.00
2018-02-18T02:30:50.360Z,0.00
2018-02-18T02:31:50.338Z,0.00
2018-02-18T02:32:50.328Z,0.00
2018-02-18T02:33:50.312Z,0.00
2018-02-18T02:34:50.297Z,0.00
2018-02-18T02:35:50.300Z,0.00
2018-02-18T02:36:50.276Z,0.00
2018-02-18T02:37:50.257Z,0.00
2018-02-18T02:38:50.241Z,0.00
2018-02-18T02:39:50.228Z,0.00
2018-02-18T02:40:50.213Z,0.00
2018-02-18T02:41:50.209Z,0.00
2018-02-18T02:42:50.183Z,0.00
2018-02-18T02:43:50.171Z,0.00
2018-02-18T02:44:50.167Z,0.00
2018-02-18T02:45:50.146Z,0.00
2018-02-18T02:46:50.128Z,0.00
2018-02-18T02:47:50.112Z,0.00
2018-02-18T02:48:50.097Z,0.00
2018-02-18T02:49:50.082Z,0.00
2018-02-18T02:50:50.071Z,0.00
2018-02-18T02:51:50.057Z,0.00
2018-02-18T02:52:50.038Z,0.00
2018-02-18T02:53:50.025Z,0.00
2018-02-18T02:54:50.006Z,0.00
2018-02-18T02:55:49.998Z,0.00
2018-02-18T02:56:49.981Z,0.00
2018-02-18T02:57:49.967Z,0.00
2018-02-18T02:58:49.955Z,0.00
2018-02-18T02:59:49.937Z,0.00
2018-02-18T03:00:49.923Z,0.00
2018-02-18T03:01:49.910Z,0.00
2018-02-18T03:02:49.897Z,0.00
2018-02-18T03:03:49.879Z,0.00
2018-02-18T03:04:49.867Z,0.00
2018-02-18T03:05:49.847Z,0.00
2018-02-18T03:06:49.838Z,0.00
2018-02-18T03:07:49.827Z,0.00
2018-02-18T03:08:49.810Z,0.00
2018-02-18T03:09:49.819Z,0.00
2018-02-18T03:10:49.788Z,0.00
2018-02-18T03:11:49.773Z,0.00
2018-02-18T03:12:49.753Z,0.00
2018-02-18T03:13:49.733Z,0.00
2018-02-18T03:14:49.725Z,0.00
2018-02-18T03:15:49.705Z,0.00
2018-02-18T03:16:49.731Z,0.00
2018-02-18T03:17:49.677Z,0.00
2018-02-18T03:18:49.670Z,0.00
2018-02-18T03:19:49.648Z,0.00
2018-02-18T03:20:49.631Z,0.00
2018-02-18T03:21:49.617Z,0.00
2018-02-18T03:22:49.606Z,0.00
2018-02-18T03:23:49.590Z,0.00
2018-02-18T03:24:49.590Z,0.00
2018-02-18T03:25:49.563Z,0.00
2018-02-18T03:26:49.554Z,0.00
2018-02-18T03:27:49.531Z,0.00
2018-02-18T03:28:49.513Z,0.00
2018-02-18T03:29:49.503Z,0.00
2018-02-18T03:30:49.487Z,0.00
2018-02-18T03:31:49.474Z,0.00
2018-02-18T03:32:49.466Z,0.00
2018-02-18T03:33:49.443Z,0.00
2018-02-18T03:34:49.435Z,0.00
2018-02-18T03:35:49.411Z,0.00
2018-02-18T03:36:49.400Z,0.00
2018-02-18T03:37:49.388Z,0.00
2018-02-18T03:38:49.371Z,0.00
2018-02-18T03:39:49.352Z,0.00
2018-02-18T03:40:49.394Z,0.00
2018-02-18T03:41:49.324Z,0.00
2018-02-18T03:42:49.311Z,0.00
2018-02-18T03:43:49.296Z,0.00
2018-02-18T03:44:49.289Z,0.00
2018-02-18T03:45:49.269Z,0.00
2018-02-18T03:46:49.256Z,0.00
2018-02-18T03:47:49.240Z,0.00
2018-02-18T03:48:49.221Z,0.00
2018-02-18T03:49:49.211Z,0.00
2018-02-18T03:50:49.193Z,0.00
2018-02-18T03:51:49.178Z,0.00
2018-02-18T03:52:49.167Z,0.00
2018-02-18T03:53:49.147Z,0.00
2018-02-18T03:56:23.496Z,0.00
2018-02-18T03:57:22.324Z,0.00
2018-02-18T03:59:15.941Z,0.00
2018-02-18T04:00:15.920Z,0.00
2018-02-18T04:02:10.286Z,0.00
2018-02-18T04:03:10.234Z,0.00
2018-02-18T04:05:03.953Z,0.00
2018-02-18T04:06:03.931Z,0.00
2018-02-18T04:07:57.598Z,0.00
2018-02-18T04:08:57.553Z,0.00
2018-02-18T04:10:51.852Z,0.00
2018-02-18T04:11:51.832Z,0.00
2018-02-18T04:13:45.503Z,0.00
2018-02-18T04:14:45.434Z,0.00
2018-02-18T04:16:39.085Z,0.00
2018-02-18T04:17:39.063Z,0.00
2018-02-18T04:19:32.710Z,0.00
2018-02-18T04:20:32.656Z,0.00
2018-02-18T04:22:26.534Z,0.00
2018-02-18T04:23:26.416Z,0.00
2018-02-18T04:25:19.998Z,0.00
2018-02-18T04:26:19.952Z,0.00
2018-02-18T04:28:15.020Z,0.00
2018-02-18T04:29:14.999Z,0.00
2018-02-18T04:31:09.457Z,0.00
2018-02-18T04:32:08.947Z,0.00
2018-02-18T04:33:08.918Z,0.00
2018-02-18T04:34:08.908Z,0.00
2018-02-18T04:35:08.884Z,0.00
2018-02-18T04:36:08.870Z,0.00
2018-02-18T04:37:08.856Z,0.00
2018-02-18T04:38:08.840Z,0.00
2018-02-18T04:39:08.827Z,0.00
2018-02-18T04:40:08.814Z,0.00
2018-02-18T04:41:08.798Z,0.00
2018-02-18T04:42:08.784Z,0.00
2018-02-18T04:43:08.775Z,0.00
2018-02-18T04:44:08.751Z,0.00
2018-02-18T04:45:08.736Z,0.00
2018-02-18T04:46:08.728Z,0.00
2018-02-18T04:47:08.705Z,0.00
2018-02-18T04:48:08.691Z,0.00
2018-02-18T04:49:08.686Z,0.00
2018-02-18T04:50:08.666Z,0.00
2018-02-18T04:51:08.671Z,0.00
2018-02-18T04:52:08.646Z,0.00
2018-02-18T04:53:08.619Z,0.00
2018-02-18T04:54:08.601Z,0.00
2018-02-18T04:55:08.586Z,0.00
2018-02-18T04:56:08.606Z,0.00
2018-02-18T04:57:08.565Z,0.00
2018-02-18T04:58:08.550Z,0.00
2018-02-18T04:59:08.529Z,0.00
2018-02-18T05:00:08.519Z,0.00
2018-02-18T05:01:08.521Z,0.00
2018-02-18T05:02:08.487Z,0.00
2018-02-18T05:03:08.473Z,0.00
2018-02-18T05:04:08.464Z,0.00
2018-02-18T05:05:08.440Z,0.00
2018-02-18T05:06:08.424Z,0.00
2018-02-18T05:07:08.424Z,0.00
2018-02-18T05:08:08.400Z,0.00
2018-02-18T05:09:08.383Z,0.00
2018-02-18T05:10:08.387Z,0.00
2018-02-18T05:11:08.351Z,0.00
2018-02-18T05:12:08.336Z,0.00
2018-02-18T05:13:08.320Z,0.00
2018-02-18T05:14:08.304Z,0.00
2018-02-18T05:15:08.288Z,0.00
2018-02-18T05:16:08.277Z,0.00
2018-02-18T05:17:08.265Z,0.00
2018-02-18T05:18:08.252Z,0.00
2018-02-18T05:19:08.234Z,0.00
2018-02-18T05:20:08.218Z,0.00
2018-02-18T05:21:08.204Z,0.00
2018-02-18T05:22:08.186Z,0.00
2018-02-18T05:23:08.170Z,0.00
2018-02-18T05:24:08.152Z,0.00
2018-02-18T05:25:08.142Z,0.00
2018-02-18T05:26:08.134Z,0.00
2018-02-18T05:27:08.129Z,0.00
2018-02-18T05:28:08.093Z,0.00
2018-02-18T05:29:08.131Z,0.00
2018-02-18T05:30:08.067Z,0.00
2018-02-18T05:31:08.049Z,0.00
2018-02-18T05:32:08.035Z,0.00
2018-02-18T05:33:08.018Z,0.00
2018-02-18T05:34:08.007Z,0.00
2018-02-18T05:35:07.993Z,0.00
2018-02-18T05:36:07.975Z,0.00
2018-02-18T05:37:07.973Z,0.00
2018-02-18T05:38:07.958Z,0.00
2018-02-18T05:39:07.934Z,0.00
2018-02-18T05:40:07.915Z,0.00
2018-02-18T05:41:07.897Z,0.00
2018-02-18T05:42:07.884Z,0.00
2018-02-18T05:43:07.870Z,0.00
2018-02-18T05:44:07.851Z,0.00
2018-02-18T05:45:07.838Z,0.00
2018-02-18T05:46:07.826Z,0.00
2018-02-18T05:47:07.826Z,0.00
2018-02-18T05:48:07.791Z,0.00
2018-02-18T05:49:07.785Z,0.00
2018-02-18T05:50:07.765Z,0.00
2018-02-18T05:51:07.753Z,0.00
2018-02-18T05:52:07.739Z,0.00
2018-02-18T05:53:07.730Z,0.00
2018-02-18T05:54:07.706Z,0.00
2018-02-18T05:55:07.687Z,0.00
2018-02-18T05:56:07.678Z,0.00
2018-02-18T05:57:07.659Z,0.00
2018-02-18T05:58:07.664Z,0.00
2018-02-18T05:59:07.630Z,0.00
2018-02-18T06:00:07.619Z,0.00
2018-02-18T06:01:07.596Z,0.00
2018-02-18T06:02:07.610Z,0.00
2018-02-18T06:03:07.597Z,0.00
2018-02-18T06:04:07.554Z,0.00
2018-02-18T06:05:07.557Z,0.00
2018-02-18T06:06:07.523Z,0.00
2018-02-18T06:07:07.507Z,0.00
2018-02-18T06:08:07.495Z,0.00
2018-02-18T06:09:07.478Z,0.00
2018-02-18T06:10:07.470Z,0.00
2018-02-18T06:11:07.474Z,0.00
2018-02-18T06:12:07.442Z,0.00
2018-02-18T06:13:07.420Z,0.00
2018-02-18T06:14:07.418Z,0.00
2018-02-18T06:15:07.390Z,0.00
2018-02-18T06:16:07.373Z,0.00
2018-02-18T06:17:07.362Z,0.00
2018-02-18T06:18:07.356Z,0.00
2018-02-18T06:19:07.331Z,0.00
2018-02-18T06:20:07.339Z,0.00
2018-02-18T06:21:07.297Z,0.00
2018-02-18T06:22:07.284Z,5.63
2018-02-18T06:23:07.271Z,5.63
2018-02-18T06:24:07.252Z,5.63
2018-02-18T06:25:07.240Z,5.63
2018-02-18T06:26:07.221Z,5.63
2018-02-18T06:27:07.206Z,5.63
2018-02-18T06:28:07.188Z,11.25
2018-02-18T06:29:07.173Z,11.25
2018-02-18T06:30:07.162Z,11.25
2018-02-18T06:31:07.142Z,16.88
2018-02-18T06:32:07.129Z,16.88
2018-02-18T06:33:07.118Z,16.88
2018-02-18T06:34:07.106Z,22.50
2018-02-18T06:35:07.085Z,22.50
2018-02-18T06:36:07.069Z,22.50
2018-02-18T06:37:07.064Z,28.13
2018-02-18T06:38:07.039Z,28.13
2018-02-18T06:39:07.032Z,33.75
2018-02-18T06:40:07.010Z,33.75
2018-02-18T06:41:06.997Z,39.38
2018-02-18T06:42:06.981Z,39.38
2018-02-18T06:43:06.963Z,45.00
2018-02-18T06:44:06.947Z,45.00
2018-02-18T06:45:06.930Z,50.63
2018-02-18T06:46:06.923Z,56.25
2018-02-18T06:47:06.905Z,61.88
2018-02-18T06:48:06.903Z,61.88
2018-02-18T06:49:06.875Z,67.50
2018-02-18T06:50:06.854Z,73.13
2018-02-18T06:51:06.847Z,78.75
2018-02-18T06:52:06.825Z,84.38
2018-02-18T06:53:06.819Z,84.38
2018-02-18T06:54:06.795Z,101.25
2018-02-18T06:55:06.787Z,106.88
2018-02-18T06:56:06.767Z,112.50
2018-02-18T06:57:06.760Z,129.38
2018-02-18T06:58:06.734Z,174.38
2018-02-18T06:59:06.721Z,157.50
2018-02-18T07:00:06.716Z,123.75
2018-02-18T07:01:06.692Z,185.63
2018-02-18T07:02:06.679Z,213.75
2018-02-18T07:03:06.657Z,180.00
2018-02-18T07:04:06.649Z,146.25
2018-02-18T07:05:06.647Z,191.25
2018-02-18T07:06:06.624Z,225.00
2018-02-18T07:07:06.618Z,270.00
2018-02-18T07:08:06.589Z,326.25
2018-02-18T07:09:06.568Z,354.38
2018-02-18T07:10:06.554Z,376.88
2018-02-18T07:11:06.541Z,382.50
2018-02-18T07:12:06.522Z,388.13
2018-02-18T07:13:06.510Z,270.00
2018-02-18T07:14:06.503Z,219.38
2018-02-18T07:15:06.482Z,208.13
2018-02-18T07:16:06.462Z,208.13
2018-02-18T07:17:06.458Z,213.75
2018-02-18T07:18:06.436Z,247.50
2018-02-18T07:19:06.424Z,450.00
2018-02-18T07:20:06.404Z,596.25
2018-02-18T07:21:06.393Z,365.63
2018-02-18T07:22:06.382Z,241.88
2018-02-18T07:23:06.363Z,247.50
2018-02-18T07:24:06.349Z,371.25
2018-02-18T07:25:06.336Z,421.88
2018-02-18T07:26:06.321Z,303.75
2018-02-18T07:27:06.308Z,399.38
2018-02-18T07:28:06.293Z,528.75
2018-02-18T07:29:06.276Z,500.63
2018-02-18T07:30:06.262Z,399.38
2018-02-18T07:31:06.255Z,298.13
2018-02-18T07:32:06.248Z,298.13
2018-02-18T07:33:06.223Z,365.63
2018-02-18T07:34:06.205Z,551.25
2018-02-18T07:35:06.196Z,444.38
2018-02-18T07:36:06.178Z,348.75
2018-02-18T07:37:06.162Z,416.25
2018-02-18T07:38:06.154Z,483.75
2018-02-18T07:39:06.140Z,950.63
2018-02-18T07:40:06.135Z,973.13
2018-02-18T07:41:06.108Z,478.13
2018-02-18T07:42:06.102Z,365.63
2018-02-18T07:43:06.084Z,495.00
2018-02-18T07:44:06.063Z,568.13
2018-02-18T07:45:06.052Z,1108.13
2018-02-18T07:46:06.041Z,1316.25
2018-02-18T07:47:06.027Z,1305.00
2018-02-18T07:48:06.012Z,1125.00
2018-02-18T07:49:05.997Z,860.63
2018-02-18T07:50:05.978Z,405.00
2018-02-18T07:51:05.969Z,388.13
2018-02-18T07:52:05.954Z,405.00
2018-02-18T07:53:05.941Z,483.75
2018-02-18T07:54:05.928Z,472.50
2018-02-18T07:55:05.914Z,421.88
2018-02-18T07:56:05.900Z,455.63
2018-02-18T07:57:05.886Z,461.25
2018-02-18T07:58:05.876Z,427.50
2018-02-18T07:59:05.864Z,427.50
2018-02-18T08:00:05.848Z,444.38
2018-02-18T08:01:05.838Z,483.75
2018-02-18T08:02:05.824Z,489.38
2018-02-18T08:03:05.811Z,472.50
2018-02-18T08:04:05.788Z,466.88
2018-02-18T08:05:05.778Z,450.00
2018-02-18T08:06:05.770Z,455.63
2018-02-18T08:07:05.752Z,461.25
2018-02-18T08:08:05.742Z,472.50
2018-02-18T08:09:05.721Z,478.13
2018-02-18T08:10:05.707Z,472.50
2018-02-18T08:11:05.696Z,511.88
2018-02-18T08:12:05.683Z,573.75
2018-02-18T08:13:05.671Z,585.00
2018-02-18T08:14:05.674Z,630.00
2018-02-18T08:15:05.646Z,731.25
2018-02-18T08:16:05.630Z,922.50
2018-02-18T08:17:05.615Z,1125.00
2018-02-18T08:18:05.602Z,1186.88
2018-02-18T08:19:05.611Z,1006.88
2018-02-18T08:20:05.597Z,691.88
2018-02-18T08:21:05.592Z,540.00
2018-02-18T08:22:05.553Z,663.75
2018-02-18T08:23:05.542Z,630.00
2018-02-18T08:24:05.521Z,556.88
2018-02-18T08:25:05.535Z,804.38
2018-02-18T08:26:05.499Z,1068.75
2018-02-18T08:27:05.486Z,1023.75
2018-02-18T08:28:05.480Z,776.25
2018-02-18T08:29:05.459Z,641.25
2018-02-18T08:30:05.446Z,742.50
2018-02-18T08:31:05.432Z,815.63
2018-02-18T08:32:05.423Z,680.63
2018-02-18T08:33:05.408Z,714.38
2018-02-18T08:34:05.394Z,658.13
2018-02-18T08:35:05.380Z,821.25
2018-02-18T08:36:05.366Z,1125.00
2018-02-18T08:37:05.357Z,1271.25
2018-02-18T08:38:05.341Z,1333.13
2018-02-18T08:39:05.333Z,1136.25
2018-02-18T08:40:05.316Z,1102.50
2018-02-18T08:41:05.307Z,1333.13
2018-02-18T08:42:05.312Z,1479.38
2018-02-18T08:43:05.283Z,1665.00
2018-02-18T08:44:05.270Z,1805.63
2018-02-18T08:45:05.251Z,1828.13
2018-02-18T08:46:05.238Z,1710.00
2018-02-18T08:47:05.234Z,1597.50
2018-02-18T08:48:05.228Z,1839.38
2018-02-18T08:49:05.208Z,1805.63
2018-02-18T08:50:05.200Z,1546.88
2018-02-18T08:51:05.182Z,1434.38
2018-02-18T08:52:05.182Z,1631.25
2018-02-18T08:53:05.162Z,1625.63
2018-02-18T08:54:05.150Z,1980.00
2018-02-18T08:55:05.144Z,2227.50
2018-02-18T08:56:05.147Z,2137.50
2018-02-18T08:57:05.117Z,2250.00
2018-02-18T08:58:05.106Z,2424.38
2018-02-18T08:59:05.097Z,2581.88
2018-02-18T09:00:05.094Z,2750.63
2018-02-18T09:01:05.080Z,2576.25
2018-02-18T09:02:05.069Z,2261.25
2018-02-18T09:03:05.053Z,2238.75
2018-02-18T09:04:05.042Z,2295.00
2018-02-18T09:05:05.033Z,2508.75
2018-02-18T09:06:05.026Z,2508.75
2018-02-18T09:07:05.018Z,2542.50
2018-02-18T09:08:05.007Z,2615.63
2018-02-18T09:09:05.029Z,2548.13
2018-02-18T09:10:05.025Z,2559.38
2018-02-18T09:11:04.981Z,2452.50
2018-02-18T09:12:04.975Z,2497.50
2018-02-18T09:13:04.965Z,2480.63
2018-02-18T09:14:04.955Z,2486.25
2018-02-18T09:15:04.945Z,2390.63
2018-02-18T09:16:04.940Z,2351.25
2018-02-18T09:17:04.936Z,2368.13
2018-02-18T09:18:04.962Z,2463.75
2018-02-18T09:19:04.930Z,2379.38
2018-02-18T09:20:04.911Z,2311.88
2018-02-18T09:21:04.916Z,2311.88
2018-02-18T09:22:04.897Z,2373.75
2018-02-18T09:23:04.896Z,2356.88
2018-02-18T09:24:04.892Z,2295.00
2018-02-18T09:25:04.885Z,2199.38
2018-02-18T09:26:04.880Z,2154.38
2018-02-18T09:27:04.866Z,2115.00
2018-02-18T09:28:04.858Z,2165.63
2018-02-18T09:29:04.857Z,2160.00
2018-02-18T09:30:04.853Z,2137.50
2018-02-18T09:31:04.851Z,2131.88
2018-02-18T09:32:04.867Z,2176.88
2018-02-18T09:33:04.894Z,2165.63
2018-02-18T09:34:04.839Z,2233.13
2018-02-18T09:35:04.827Z,2300.63
2018-02-18T09:36:04.822Z,2120.63
2018-02-18T09:37:04.825Z,2176.88
2018-02-18T09:38:04.836Z,2227.50
2018-02-18T09:39:04.823Z,2131.88
2018-02-18T09:40:04.812Z,2086.88
2018-02-18T09:41:04.803Z,2148.75
2018-02-18T09:42:04.801Z,2255.63
2018-02-18T09:43:04.821Z,2182.50
2018-02-18T09:44:04.795Z,2131.88
2018-02-18T09:45:04.796Z,2103.75
2018-02-18T09:46:04.788Z,2109.38
2018-02-18T09:47:04.806Z,2143.13
2018-02-18T09:48:04.786Z,2098.13
2018-02-18T09:49:04.787Z,2081.25
2018-02-18T09:50:04.802Z,2345.63
2018-02-18T09:51:04.770Z,2424.38
2018-02-18T09:52:04.786Z,2553.75
2018-02-18T09:53:04.767Z,2711.25
2018-02-18T09:54:04.764Z,2829.38
2018-02-18T09:55:04.760Z,2986.88
2018-02-18T09:56:04.784Z,3110.63
2018-02-18T09:57:04.764Z,3251.25
2018-02-18T09:58:04.754Z,3358.13
2018-02-18T09:59:04.781Z,3386.25
2018-02-18T10:00:04.745Z,3211.88
2018-02-18T10:01:04.743Z,3031.88
2018-02-18T10:02:04.753Z,3110.63
2018-02-18T10:03:04.759Z,3099.38
2018-02-18T10:04:04.739Z,3150.00
2018-02-18T10:05:04.739Z,2992.50
2018-02-18T10:06:04.764Z,2806.88
2018-02-18T10:07:04.753Z,2756.25
2018-02-18T10:08:04.735Z,2525.63
2018-02-18T10:09:04.727Z,1929.38
2018-02-18T10:10:04.732Z,2081.25
2018-02-18T10:11:04.734Z,2261.25
2018-02-18T10:12:04.725Z,2345.63
2018-02-18T10:13:04.731Z,2801.25
2018-02-18T10:14:04.719Z,2902.50
2018-02-18T10:15:04.721Z,3043.13
2018-02-18T10:16:04.715Z,3240.00
2018-02-18T10:17:04.715Z,3256.88
2018-02-18T10:18:04.728Z,3403.13
2018-02-18T10:19:04.707Z,3453.75
2018-02-18T10:20:04.706Z,3358.13
2018-02-18T10:21:04.732Z,3127.50
2018-02-18T10:22:04.712Z,2919.38
2018-02-18T10:23:04.701Z,3065.63
2018-02-18T10:24:04.704Z,3285.00
2018-02-18T10:25:04.696Z,3375.00
2018-02-18T10:26:04.699Z,3504.38
2018-02-18T10:27:04.701Z,3571.88
2018-02-18T10:28:04.697Z,3515.63
2018-02-18T10:29:04.690Z,3301.88
2018-02-18T10:30:04.690Z,3150.00
2018-02-18T10:31:04.690Z,3206.25
2018-02-18T10:32:04.688Z,3290.63
2018-02-18T10:33:04.692Z,3425.63
2018-02-18T10:34:04.694Z,3510.00
2018-02-18T10:35:04.682Z,3459.38
2018-02-18T10:36:04.680Z,3476.25
2018-02-18T10:37:04.678Z,3459.38
2018-02-18T10:38:04.678Z,3335.63
2018-02-18T10:39:04.673Z,3307.50
2018-02-18T10:40:04.669Z,3234.38
2018-02-18T10:41:04.677Z,3346.88
2018-02-18T10:42:04.680Z,3391.88
2018-02-18T10:43:04.667Z,3391.88
2018-02-18T10:44:04.669Z,3459.38
2018-02-18T10:45:04.664Z,3504.38
2018-02-18T10:46:04.659Z,3526.88
2018-02-18T10:47:04.660Z,3678.75
2018-02-18T10:48:04.673Z,3723.75
2018-02-18T10:49:04.670Z,3735.00
2018-02-18T10:50:04.661Z,3684.38
2018-02-18T10:51:04.660Z,3661.88
2018-02-18T10:52:04.650Z,3616.88
2018-02-18T10:53:04.660Z,3746.25
2018-02-18T10:54:04.669Z,3875.63
2018-02-18T10:55:04.665Z,3870.00
2018-02-18T10:56:04.647Z,3729.38
2018-02-18T10:57:04.644Z,3757.50
2018-02-18T10:58:04.644Z,3706.88
2018-02-18T10:59:04.639Z,3723.75
2018-02-18T11:00:04.636Z,3504.38
2018-02-18T11:01:04.642Z,3515.63
2018-02-18T11:02:04.653Z,3645.00
2018-02-18T11:03:04.703Z,3735.00
2018-02-18T11:04:04.633Z,3780.00
2018-02-18T11:05:04.660Z,3538.13
2018-02-18T11:06:04.629Z,3493.13
2018-02-18T11:07:04.660Z,3515.63
2018-02-18T11:08:04.653Z,3622.50
2018-02-18T11:09:04.672Z,3667.50
2018-02-18T11:10:04.624Z,3571.88
2018-02-18T11:11:04.643Z,3369.38
2018-02-18T11:12:04.624Z,3110.63
2018-02-18T11:13:04.621Z,3864.38
2018-02-18T11:14:04.616Z,4123.13
2018-02-18T11:15:04.612Z,4083.75
2018-02-18T11:16:04.614Z,3971.25
2018-02-18T11:17:04.609Z,3763.13
2018-02-18T11:18:04.612Z,3740.63
2018-02-18T11:19:04.607Z,3785.63
2018-02-18T11:20:04.615Z,3836.25
2018-02-18T11:21:04.606Z,3915.00
2018-02-18T11:22:04.608Z,3903.75
2018-02-18T11:23:04.616Z,3813.75
2018-02-18T11:24:04.602Z,3836.25
2018-02-18T11:25:04.600Z,3830.63
2018-02-18T11:26:04.594Z,3605.63
2018-02-18T11:27:04.592Z,3369.38
2018-02-18T11:28:04.596Z,2283.75
2018-02-18T11:29:04.599Z,2891.25
2018-02-18T11:30:04.597Z,2745.00
2018-02-18T11:31:04.589Z,2677.50
2018-02-18T11:32:04.591Z,2716.88
2018-02-18T11:33:04.587Z,2778.75
2018-02-18T11:34:04.584Z,2970.00
2018-02-18T11:35:04.600Z,3206.25
2018-02-18T11:36:04.582Z,3161.25
2018-02-18T11:37:04.587Z,3105.00
2018-02-18T11:38:04.580Z,3335.63
2018-02-18T11:39:04.576Z,3352.50
2018-02-18T11:40:04.573Z,3532.50
2018-02-18T11:41:04.584Z,3650.63
2018-02-18T11:42:04.592Z,3549.38
2018-02-18T11:43:04.568Z,3414.38
2018-02-18T11:44:04.570Z,3414.38
2018-02-18T11:45:04.569Z,3515.63
2018-02-18T11:46:04.611Z,3465.00
2018-02-18T11:47:04.563Z,3380.63
2018-02-18T11:48:04.566Z,3459.38
2018-02-18T11:49:04.561Z,3453.75
2018-02-18T11:50:04.555Z,3414.38
2018-02-18T11:51:04.572Z,3442.50
2018-02-18T11:52:04.553Z,3363.75
2018-02-18T11:53:04.551Z,2986.88
2018-02-18T11:54:04.567Z,2655.00
2018-02-18T11:55:04.555Z,2385.00
2018-02-18T11:56:04.555Z,2677.50
2018-02-18T11:57:04.548Z,3285.00
2018-02-18T11:58:04.547Z,3240.00
2018-02-18T11:59:04.555Z,3150.00
2018-02-18T12:00:04.542Z,3105.00
2018-02-18T12:01:04.542Z,3144.38
2018-02-18T12:02:04.550Z,3268.13
2018-02-18T12:03:04.542Z,3223.13
2018-02-18T12:04:04.537Z,3234.38
2018-02-18T12:05:04.535Z,3217.50
2018-02-18T12:06:04.591Z,3161.25
2018-02-18T12:07:04.576Z,3105.00
2018-02-18T12:08:04.533Z,3054.38
2018-02-18T12:09:04.531Z,3048.75
2018-02-18T12:10:04.528Z,2896.88
2018-02-18T12:11:04.521Z,2846.25
2018-02-18T12:12:04.517Z,2812.50
2018-02-18T12:13:04.537Z,2896.88
2018-02-18T12:14:04.553Z,2851.88
2018-02-18T12:15:04.534Z,2767.50
2018-02-18T12:16:04.508Z,2840.63
2018-02-18T12:17:04.512Z,2829.38
2018-02-18T12:18:04.518Z,2790.00
2018-02-18T12:19:04.504Z,2891.25
2018-02-18T12:20:04.513Z,2896.88
2018-02-18T12:21:04.506Z,2902.50
2018-02-18T12:22:04.502Z,2868.75
2018-02-18T12:23:04.558Z,2857.50
2018-02-18T12:24:04.514Z,2767.50
2018-02-18T12:25:04.490Z,2835.00
2018-02-18T12:26:04.499Z,2857.50
2018-02-18T12:27:04.491Z,2593.13
2018-02-18T12:28:04.515Z,2739.38
2018-02-18T12:29:04.505Z,2638.13
2018-02-18T12:30:04.495Z,2626.88
2018-02-18T12:31:04.511Z,2745.00
2018-02-18T12:32:04.476Z,2784.38
2018-02-18T12:33:04.476Z,2705.63
2018-02-18T12:34:04.472Z,2638.13
2018-02-18T12:35:04.496Z,2514.38
2018-02-18T12:36:04.473Z,2446.88
2018-02-18T12:37:04.477Z,2413.13
2018-02-18T12:38:04.490Z,2503.13
2018-02-18T12:39:04.471Z,2520.00
2018-02-18T12:40:04.496Z,2480.63
2018-02-18T12:41:04.467Z,2300.63
2018-02-18T12:42:04.457Z,2109.38
2018-02-18T12:43:04.509Z,2075.63
2018-02-18T12:44:04.453Z,2199.38
2018-02-18T12:45:04.451Z,2340.00
2018-02-18T12:46:04.444Z,2278.13
2018-02-18T12:47:04.446Z,2255.63
2018-02-18T12:48:04.441Z,2283.75
2018-02-18T12:49:04.448Z,2233.13
2018-02-18T12:50:04.432Z,2160.00
2018-02-18T12:51:04.458Z,2120.63
2018-02-18T12:52:04.446Z,2165.63
2018-02-18T12:53:04.434Z,2109.38
2018-02-18T12:54:04.438Z,2171.25
2018-02-18T12:55:04.438Z,2103.75
2018-02-18T12:56:04.440Z,2075.63
2018-02-18T12:57:04.433Z,2165.63